createdAt,value
2019-03-11T01:05:04.573Z,1.43
2019-03-11T01:10:06.495Z,1.63
2019-03-11T01:15:07.664Z,1.73
2019-03-11T01:20:09.719Z,1.40
2019-03-11T01:25:10.919Z,1.10
2019-03-11T01:30:12.096Z,1.60
2019-03-11T02:30:35.516Z,1.73
2019-03-11T02:35:36.627Z,1.17
2019-03-11T02:40:37.810Z,1.60
2019-03-11T02:45:39.740Z,1.50
2019-03-11T02:50:40.910Z,1.60
2019-03-11T02:55:42.085Z,1.80
2019-03-11T04:01:44.252Z,1.30
2019-03-11T04:06:45.406Z,1.07
2019-03-11T04:11:46.619Z,1.20
2019-03-11T04:16:47.821Z,1.90
2019-03-11T04:21:49.068Z,1.60
2019-03-11T04:26:51.019Z,0.90
2019-03-11T05:32:53.585Z,1.40
2019-03-11T05:37:54.755Z,1.57
2019-03-11T05:42:55.947Z,1.60
2019-03-11T05:47:57.200Z,1.10
2019-03-11T05:52:58.385Z,1.30
2019-03-11T05:57:59.586Z,1.13
2019-03-11T07:04:02.109Z,0.40
2019-03-11T07:09:03.312Z,0.50
2019-03-11T07:14:04.522Z,0.40
2019-03-11T07:19:05.753Z,0.37
2019-03-11T07:24:06.997Z,0.30
2019-03-11T07:29:08.180Z,0.33
2019-03-11T08:35:09.477Z,0.37
2019-03-11T08:40:11.531Z,0.60
2019-03-11T08:45:12.765Z,0.37
2019-03-11T08:50:16.951Z,0.40
2019-03-11T08:55:18.887Z,0.30
2019-03-11T09:00:21.958Z,0.93
2019-03-11T10:00:40.642Z,0.47
2019-03-11T10:05:42.612Z,0.33
2019-03-11T10:10:45.666Z,0.50
2019-03-11T10:15:46.800Z,0.50
2019-03-11T10:20:49.772Z,0.60
2019-03-11T10:25:51.084Z,0.50
2019-03-11T11:31:56.073Z,0.63
2019-03-11T11:36:57.299Z,0.50
2019-03-11T11:41:58.447Z,1.03
2019-03-11T11:47:00.364Z,0.87
2019-03-11T11:52:01.544Z,0.90
2019-03-11T11:57:02.718Z,0.70
2019-03-11T13:03:04.099Z,0.40
2019-03-11T13:08:05.271Z,0.70
2019-03-11T13:13:06.500Z,0.60
2019-03-11T13:18:20.032Z,0.50
2019-03-11T13:23:21.210Z,0.80
2019-03-11T13:28:22.378Z,0.47
2019-03-11T14:34:25.400Z,0.57
2019-03-11T14:39:26.571Z,0.57
2019-03-11T14:44:28.564Z,0.57
2019-03-11T14:49:29.702Z,0.50
2019-03-11T14:54:30.858Z,0.53
2019-03-11T14:59:32.031Z,0.57
2019-03-11T16:05:30.781Z,0.90
2019-03-11T16:10:31.979Z,0.70
2019-03-11T16:15:33.204Z,0.80
2019-03-11T16:20:34.386Z,0.70
2019-03-11T16:25:35.570Z,0.90
2019-03-11T16:30:36.767Z,0.70
2019-03-11T16:35:37.961Z,0.80
2019-03-11T16:40:39.147Z,1.13
2019-03-11T16:45:40.371Z,1.13
2019-03-11T16:50:41.561Z,1.20
2019-03-11T16:55:52.735Z,1.20
2019-03-11T17:00:53.935Z,1.00
2019-03-11T17:05:55.146Z,1.20
2019-03-11T17:10:56.310Z,1.30
2019-03-11T17:15:57.506Z,1.10
2019-03-11T17:20:58.699Z,1.20
2019-03-11T17:26:00.617Z,1.33
2019-03-11T17:31:04.664Z,1.30
2019-03-11T17:36:13.664Z,1.37
2019-03-11T17:41:17.318Z,0.90
2019-03-11T17:46:18.741Z,1.23
2019-03-11T17:51:19.929Z,0.93
2019-03-11T17:56:21.111Z,1.10
2019-03-11T18:01:22.645Z,1.40
2019-03-11T18:06:24.533Z,1.20
2019-03-11T18:11:29.845Z,1.20
2019-03-11T18:16:31.783Z,1.30
2019-03-11T18:21:33.147Z,1.20
2019-03-11T18:26:34.397Z,1.73
2019-03-11T18:31:36.919Z,1.40
2019-03-11T18:36:38.201Z,1.70
2019-03-11T18:41:47.614Z,1.60
2019-03-11T18:46:48.964Z,1.23
2019-03-11T18:51:51.259Z,1.57
2019-03-11T18:56:52.646Z,1.10
2019-03-11T19:01:57.500Z,1.30
2019-03-11T19:07:07.099Z,1.20
2019-03-11T19:12:09.404Z,1.20
2019-03-11T19:17:10.771Z,1.30
2019-03-11T19:22:11.998Z,1.20
2019-03-11T19:27:13.948Z,1.10
2019-03-11T19:32:15.210Z,0.97
2019-03-11T19:37:16.912Z,1.13
2019-03-11T19:42:22.512Z,1.00
2019-03-11T19:47:23.909Z,1.37
2019-03-11T19:52:25.248Z,1.37
2019-03-11T19:57:27.532Z,1.43
2019-03-11T20:02:28.798Z,1.03
2019-03-11T20:07:30.521Z,1.10
2019-03-11T20:12:31.297Z,1.20
2019-03-11T20:17:32.539Z,1.20
2019-03-11T20:22:43.001Z,1.30
2019-03-11T20:27:53.225Z,1.17
2019-03-11T20:32:54.840Z,1.17
2019-03-11T20:37:56.796Z,1.17
2019-03-11T20:43:06.990Z,1.20
2019-03-11T20:48:11.080Z,1.10
2019-03-11T20:53:14.192Z,1.23
2019-03-11T20:58:16.007Z,0.83
2019-03-11T21:03:21.356Z,0.90
2019-03-11T21:08:33.722Z,1.10
2019-03-11T21:13:35.081Z,1.37
2019-03-11T21:18:36.287Z,0.80
2019-03-11T21:23:37.666Z,0.90
2019-03-11T21:28:39.985Z,1.10
2019-03-11T21:33:41.244Z,1.03
2019-03-11T21:38:42.761Z,0.80
2019-03-11T21:43:44.015Z,0.87
2019-03-11T21:48:45.417Z,1.07
2019-03-11T21:53:47.373Z,1.40
2019-03-11T21:58:50.758Z,0.90
2019-03-11T22:03:52.082Z,1.00
2019-03-11T22:08:53.279Z,1.00
2019-03-11T22:13:55.240Z,1.20
2019-03-11T22:18:56.436Z,0.93
2019-03-11T22:23:58.267Z,1.00
2019-03-11T22:29:01.794Z,0.90
2019-03-11T22:34:03.083Z,0.97
2019-03-11T22:39:04.853Z,1.63
2019-03-11T22:44:06.093Z,1.03
2019-03-11T22:49:07.361Z,1.30
2019-03-11T22:54:09.489Z,1.23
2019-03-11T22:59:12.199Z,1.57
2019-03-11T23:34:43.849Z,1.20
2019-03-11T23:39:45.020Z,1.30
2019-03-11T23:44:46.219Z,1.30
2019-03-11T23:49:47.399Z,1.30
2019-03-11T23:54:48.612Z,1.23
2019-03-11T23:59:49.849Z,1.53
